Time;durP1;ratioP1;P1;durP2;ratioP2;P2;SDS_P1;SDS_P2;PMS_P1;PMS_P2;Temp;Humidity;BMP_temperature;BMP_pressure;BME280_temperature;BME280_humidity;BME280_pressure;Samples;Min_cycle;Max_cycle;Signal;HPM_P1;HPM_P2
2024/03/27 05:00:44;;;;;;;1.80;1.70;;;3.00;97.30;;;;;;5928782;23;21174;-91
2024/03/27 05:03:09;;;;;;;1.23;1.13;;;3.10;97.30;;;;;;4995891;28;20428;-89
2024/03/27 05:05:35;;;;;;;1.47;1.37;;;3.10;97.30;;;;;;5000468;28;20185;-88
2024/03/27 05:08:01;;;;;;;2.20;1.63;;;3.10;97.30;;;;;;4997927;28;20236;-87
2024/03/27 05:10:27;;;;;;;2.83;2.10;;;3.10;97.30;;;;;;4998580;28;20173;-88
2024/03/27 05:12:52;;;;;;;4.00;3.43;;;3.10;97.30;;;;;;5034752;28;20494;-88
2024/03/27 05:15:25;;;;;;;3.53;1.90;;;3.10;97.30;;;;;;5010184;28;20487;-88
2024/03/27 05:17:51;;;;;;;1.60;1.60;;;3.10;97.30;;;;;;5011643;28;20681;-88
2024/03/27 05:20:17;;;;;;;2.30;2.10;;;3.20;97.30;;;;;;5012127;28;20474;-87
2024/03/27 05:22:43;;;;;;;1.30;1.20;;;3.20;97.30;;;;;;5013812;28;20238;-89
2024/03/27 05:25:09;;;;;;;2.33;2.20;;;3.30;97.30;;;;;;5013995;28;20514;-88
2024/03/27 05:27:35;;;;;;;1.83;1.73;;;3.30;97.30;;;;;;5012464;28;20212;-86
2024/03/27 05:30:00;;;;;;;1.00;0.90;;;3.30;97.30;;;;;;5013921;28;20181;-84
2024/03/27 05:32:26;;;;;;;1.77;1.67;;;3.40;97.30;;;;;;5016261;28;20435;-86
2024/03/27 05:34:52;;;;;;;1.20;1.10;;;3.40;97.30;;;;;;5031960;28;20654;-86
2024/03/27 05:37:18;;;;;;;1.10;1.00;;;3.50;97.30;;;;;;5017980;28;20435;-85
2024/03/27 05:39:44;;;;;;;1.63;1.53;;;3.50;97.30;;;;;;5017044;28;20184;-89
2024/03/27 05:42:09;;;;;;;1.30;1.20;;;3.60;97.30;;;;;;5010551;28;20487;-88
2024/03/27 05:44:35;;;;;;;1.33;1.30;;;3.60;97.30;;;;;;5014862;28;20180;-88
2024/03/27 05:47:03;;;;;;;1.80;1.53;;;3.70;97.30;;;;;;5013066;28;20201;-87
2024/03/27 05:49:31;;;;;;;2.57;2.30;;;3.70;97.30;;;;;;5016154;28;20929;-85
2024/03/27 05:51:57;;;;;;;1.20;1.10;;;3.70;97.30;;;;;;5014168;28;20531;-89
2024/03/27 05:54:22;;;;;;;1.10;1.00;;;3.80;97.30;;;;;;5003943;28;20448;-89
2024/03/27 05:56:49;;;;;;;1.50;1.40;;;3.90;97.30;;;;;;5006070;28;20185;-88
2024/03/27 05:59:15;;;;;;;1.77;1.67;;;3.90;97.30;;;;;;5021693;28;20642;-93
2024/03/27 06:01:40;;;;;;;1.77;1.73;;;4.00;97.30;;;;;;5012741;28;20470;-89
2024/03/27 06:04:06;;;;;;;1.20;1.10;;;4.10;97.30;;;;;;5020182;28;20222;-90
2024/03/27 06:06:34;;;;;;;1.47;1.37;;;4.10;97.30;;;;;;5015848;28;20257;-87
2024/03/27 06:09:00;;;;;;;1.20;1.10;;;4.20;97.30;;;;;;5021413;28;20180;-89
2024/03/27 06:11:25;;;;;;;1.93;1.83;;;4.20;97.30;;;;;;5021964;28;20975;-90
2024/03/27 06:13:51;;;;;;;1.00;0.90;;;4.30;97.30;;;;;;5022786;28;20326;-86
2024/03/27 06:16:16;;;;;;;1.40;1.30;;;4.40;97.30;;;;;;5020303;28;20205;-88
2024/03/27 06:18:49;;;;;;;1.20;1.10;;;4.50;97.30;;;;;;5021676;28;20180;-91
2024/03/27 06:21:14;;;;;;;1.23;1.20;;;4.60;97.30;;;;;;5021828;28;20204;-89
2024/03/27 06:23:40;;;;;;;2.80;2.37;;;4.70;97.30;;;;;;5022540;28;20449;-90
2024/03/27 06:26:05;;;;;;;1.60;1.50;;;4.80;97.30;;;;;;5022713;28;20602;-89
2024/03/27 06:28:33;;;;;;;4.00;1.83;;;4.90;97.30;;;;;;5021624;28;20666;-89
2024/03/27 06:31:00;;;;;;;1.67;1.57;;;5.00;97.30;;;;;;5023093;28;20205;-87
2024/03/27 06:33:26;;;;;;;1.73;1.53;;;5.20;97.30;;;;;;5015314;28;20434;-89
2024/03/27 06:35:52;;;;;;;1.17;1.13;;;5.30;97.30;;;;;;5019723;28;20411;-91
2024/03/27 06:38:19;;;;;;;1.60;1.50;;;5.40;97.30;;;;;;5022998;28;20800;-88
2024/03/27 06:40:45;;;;;;;1.30;1.20;;;5.50;97.30;;;;;;5021037;28;20439;-90
2024/03/27 06:43:13;;;;;;;1.10;1.00;;;5.60;97.30;;;;;;5019094;28;20427;-88
2024/03/27 06:45:43;;;;;;;3.20;2.20;;;5.80;97.30;;;;;;5036368;28;20369;-89
2024/03/27 06:48:15;;;;;;;1.40;1.30;;;6.00;97.30;;;;;;5022127;28;20451;-88
2024/03/27 06:51:01;;;;;;;1.63;1.50;;;6.10;97.30;;;;;;5021709;28;20443;-89
2024/03/27 06:53:35;;;;;;;1.00;0.90;;;6.30;97.30;;;;;;5022766;28;20698;-87
2024/03/27 06:56:04;;;;;;;1.33;1.17;;;6.50;97.30;;;;;;5020180;28;20419;-88
2024/03/27 06:58:53;;;;;;;1.00;0.90;;;6.70;97.30;;;;;;5020600;28;20431;-90
2024/03/27 07:01:26;;;;;;;1.00;0.90;;;6.80;97.30;;;;;;5007652;28;20488;-88
2024/03/27 07:03:51;;;;;;;8.70;2.10;;;7.10;97.30;;;;;;5017916;28;20419;-89
2024/03/27 07:06:17;;;;;;;1.53;1.43;;;7.30;97.30;;;;;;5018110;28;20419;-89
2024/03/27 07:08:42;;;;;;;1.33;1.13;;;7.40;97.30;;;;;;5017422;28;20552;-88
2024/03/27 07:11:08;;;;;;;5.10;2.50;;;7.60;97.30;;;;;;5017622;28;20207;-89
2024/03/27 07:13:33;;;;;;;1.60;1.50;;;7.70;97.30;;;;;;5017822;28;20187;-89
2024/03/27 07:15:59;;;;;;;1.10;1.00;;;7.90;97.30;;;;;;5014833;28;20267;-90
2024/03/27 07:18:26;;;;;;;1.40;1.30;;;8.00;97.30;;;;;;5015562;28;20192;-92
2024/03/27 07:20:58;;;;;;;1.00;0.90;;;8.20;97.30;;;;;;5010619;28;20203;-88
2024/03/27 07:23:24;;;;;;;2.70;1.87;;;8.30;97.30;;;;;;5017345;28;20423;-90
2024/03/27 07:25:50;;;;;;;3.03;1.97;;;8.60;97.30;;;;;;5016272;28;20415;-89
2024/03/27 07:28:15;;;;;;;4.57;1.30;;;8.90;97.30;;;;;;5016424;28;20459;-89
2024/03/27 07:30:41;;;;;;;1.07;1.00;;;9.20;97.30;;;;;;5019002;28;20201;-90
2024/03/27 07:33:07;;;;;;;1.60;1.50;;;9.50;97.30;;;;;;5018034;28;20183;-89
2024/03/27 07:35:33;;;;;;;7.50;2.03;;;9.70;97.30;;;;;;5013433;28;20184;-89
2024/03/27 07:37:58;;;;;;;1.37;1.30;;;10.00;96.80;;;;;;5019174;28;20431;-89
2024/03/27 07:40:27;;;;;;;1.20;1.10;;;10.10;96.90;;;;;;5018100;28;20207;-90
2024/03/27 07:42:53;;;;;;;1.17;1.07;;;10.30;95.60;;;;;;5017547;28;20184;-90
2024/03/27 07:45:19;;;;;;;4.77;2.70;;;10.60;95.30;;;;;;5016361;28;20424;-90
2024/03/27 07:47:44;;;;;;;1.67;1.57;;;10.80;95.40;;;;;;5018243;28;20471;-88
2024/03/27 07:50:10;;;;;;;1.10;1.00;;;11.00;95.40;;;;;;5036695;28;20181;-89
2024/03/27 07:52:36;;;;;;;1.17;1.07;;;11.30;94.60;;;;;;5017774;28;20203;-89
2024/03/27 07:55:02;;;;;;;1.77;1.50;;;11.50;93.80;;;;;;5018953;28;20191;-89
2024/03/27 07:57:27;;;;;;;1.40;1.30;;;11.60;93.00;;;;;;5018666;28;20180;-89
2024/03/27 07:59:53;;;;;;;1.30;1.20;;;11.80;91.80;;;;;;5012092;28;20444;-89
2024/03/27 08:02:22;;;;;;;1.30;1.20;;;11.80;90.70;;;;;;5010419;28;20232;-89
2024/03/27 08:04:48;;;;;;;2.30;1.10;;;11.90;91.90;;;;;;5018947;28;20426;-89
2024/03/27 08:07:13;;;;;;;3.03;1.73;;;12.10;91.60;;;;;;5017246;28;20558;-90
2024/03/27 08:10:03;;;;;;;1.00;0.90;;;12.30;92.30;;;;;;5020367;28;20188;-90
2024/03/27 08:12:35;;;;;;;2.03;1.80;;;12.30;89.40;;;;;;5008492;28;20243;-89
2024/03/27 08:15:15;;;;;;;2.10;1.90;;;12.40;89.30;;;;;;5018309;28;20525;-88
2024/03/27 08:18:04;;;;;;;0.90;0.80;;;12.40;89.80;;;;;;5010734;28;20461;-90
2024/03/27 08:20:35;;;;;;;1.47;1.37;;;12.30;89.60;;;;;;5013351;28;20440;-89
2024/03/27 08:23:03;;;;;;;1.87;1.27;;;12.20;89.10;;;;;;5014820;28;20517;-88
2024/03/27 08:25:36;;;;;;;0.70;0.70;;;12.20;90.20;;;;;;5010359;28;20844;-89
2024/03/27 08:28:05;;;;;;;10.90;1.70;;;12.20;89.10;;;;;;5008351;28;20787;-89
2024/03/27 08:30:55;;;;;;;1.40;1.30;;;12.30;89.00;;;;;;5010222;28;20427;-91
2024/03/27 08:33:33;;;;;;;7.20;2.27;;;12.70;89.30;;;;;;5015333;28;20491;-90
2024/03/27 08:36:26;;;;;;;1.00;0.90;;;12.90;87.70;;;;;;5016218;28;20449;-90
2024/03/27 08:38:54;;;;;;;0.90;0.80;;;13.20;88.30;;;;;;5028196;28;20422;-89
2024/03/27 08:41:26;;;;;;;5.03;2.83;;;13.40;87.20;;;;;;5016045;28;20443;-90
2024/03/27 08:44:04;;;;;;;1.93;1.37;;;13.50;86.50;;;;;;5016733;28;20416;-89
2024/03/27 08:46:35;;;;;;;1.07;0.97;;;13.60;87.90;;;;;;5016979;28;20422;-90
2024/03/27 08:49:05;;;;;;;1.73;1.60;;;13.80;86.60;;;;;;5017320;28;20428;-87
2024/03/27 08:51:36;;;;;;;3.97;1.10;;;14.00;88.10;;;;;;5016538;28;20473;-89
2024/03/27 08:54:04;;;;;;;1.00;0.90;;;14.20;86.90;;;;;;5019322;28;20446;-90
2024/03/27 08:56:35;;;;;;;1.10;1.00;;;14.50;87.00;;;;;;5008956;28;20478;-89
2024/03/27 08:59:03;;;;;;;1.10;1.00;;;14.60;85.40;;;;;;5000981;28;20420;-89
2024/03/27 09:01:35;;;;;;;2.87;1.00;;;14.60;84.00;;;;;;4999309;28;20470;-90
2024/03/27 09:04:06;;;;;;;1.20;1.10;;;14.40;84.60;;;;;;5016078;28;20422;-89
2024/03/27 09:06:34;;;;;;;1.90;1.33;;;14.20;85.80;;;;;;5016601;28;20427;-88
2024/03/27 09:09:03;;;;;;;1.47;1.37;;;14.00;85.60;;;;;;5017166;28;20510;-89
2024/03/27 09:11:36;;;;;;;0.90;0.80;;;14.00;87.00;;;;;;5007295;28;20431;-90
2024/03/27 09:14:05;;;;;;;2.90;1.33;;;14.00;85.40;;;;;;5015758;28;20435;-89
2024/03/27 09:16:36;;;;;;;1.27;1.17;;;14.10;86.30;;;;;;5004870;28;20420;-89
2024/03/27 09:19:04;;;;;;;1.57;1.40;;;14.30;86.10;;;;;;5003979;28;20420;-87
2024/03/27 09:21:35;;;;;;;3.20;1.80;;;14.40;85.60;;;;;;5008879;28;20463;-93
2024/03/27 09:24:04;;;;;;;2.13;1.93;;;14.40;84.70;;;;;;5004553;28;20511;-89
2024/03/27 09:27:15;;;;;;;1.80;1.70;;;14.60;84.70;;;;;;5030362;28;20426;-90
2024/03/27 09:29:53;;;;;;;0.90;0.80;;;14.80;84.40;;;;;;4945507;29;20427;-91
2024/03/27 09:32:45;;;;;;;8.80;1.63;;;15.10;85.10;;;;;;5020195;28;20444;-89
2024/03/27 09:35:14;;;;;;;6.77;1.63;;;15.30;84.40;;;;;;5029150;28;20428;-88
2024/03/27 09:37:46;;;;;;;1.10;1.00;;;15.50;84.10;;;;;;5016251;28;20435;-92
2024/03/27 09:40:46;;;;;;;1.07;0.97;;;15.70;83.10;;;;;;5009107;28;20462;-90
2024/03/27 09:43:16;;;;;;;1.37;1.10;;;15.90;82.90;;;;;;5010297;28;20454;-91
2024/03/27 09:46:25;;;;;;;3.87;1.50;;;16.00;81.70;;;;;;5005917;28;20428;-93
2024/03/27 09:49:05;;;;;;;1.80;1.53;;;16.20;81.70;;;;;;5021984;28;20451;-92
2024/03/27 09:51:56;;;;;;;1.23;1.13;;;16.30;82.00;;;;;;5009090;28;20443;-93
2024/03/27 09:54:36;;;;;;;4.20;1.80;;;16.50;81.60;;;;;;5007986;28;20948;-91
2024/03/27 09:57:16;;;;;;;1.10;1.00;;;16.60;81.70;;;;;;5005979;28;20576;-90
2024/03/27 10:00:16;;;;;;;1.43;1.33;;;16.60;81.90;;;;;;5029536;28;20904;-90
2024/03/27 10:02:45;;;;;;;1.40;1.30;;;16.60;82.70;;;;;;5029920;28;20498;-91
2024/03/27 10:05:26;;;;;;;1.00;0.93;;;16.80;82.60;;;;;;5014349;28;20431;-90
2024/03/27 10:11:05;;;;;;;2.00;1.70;;;17.20;80.90;;;;;;5024574;28;21010;-92
2024/03/27 10:13:44;;;;;;;2.60;1.20;;;17.30;81.60;;;;;;5009612;28;20419;-89
2024/03/27 10:16:36;;;;;;;2.40;1.20;;;17.40;81.80;;;;;;5009059;28;20456;-93
2024/03/27 10:19:05;;;;;;;1.30;1.20;;;17.60;81.70;;;;;;5006107;28;21058;-89
2024/03/27 10:24:23;;;;;;;1.50;1.43;;;17.80;80.90;;;;;;4997792;28;20671;-92
2024/03/27 10:26:54;;;;;;;1.07;1.00;;;17.80;79.60;;;;;;5005481;28;20463;-89
2024/03/27 10:29:24;;;;;;;1.10;1.00;;;17.80;79.70;;;;;;5017629;28;20414;-87
2024/03/27 10:31:53;;;;;;;1.20;1.10;;;17.90;79.20;;;;;;5022934;28;20446;-93
2024/03/27 10:34:47;;;;;;;1.90;1.13;;;17.90;79.40;;;;;;5017503;28;20423;-89
2024/03/27 10:37:24;;;;;;;2.93;2.00;;;18.00;79.20;;;;;;5010893;28;20462;-93
2024/03/27 10:40:24;;;;;;;1.43;1.33;;;18.00;79.90;;;;;;5016451;28;20431;-89
2024/03/27 10:43:55;;;;;;;1.33;1.20;;;18.10;79.50;;;;;;5007363;28;20477;-90
2024/03/27 10:46:25;;;;;;;1.73;1.20;;;18.00;79.30;;;;;;4928097;29;20430;-90
2024/03/27 10:49:06;;;;;;;1.67;1.57;;;18.00;79.90;;;;;;4920450;29;20435;-89
2024/03/27 10:51:36;;;;;;;16.07;1.37;;;17.90;80.20;;;;;;4920016;29;20550;-90
2024/03/27 10:54:27;;;;;;;;;;;;;;;;;;;;;
2024/03/27 10:56:56;;;;;;;1.90;1.80;;;18.00;80.90;;;;;;4962480;28;20431;-90
2024/03/27 10:59:27;;;;;;;2.03;1.17;;;18.10;79.50;;;;;;5017275;28;20427;-90
2024/03/27 11:02:24;;;;;;;1.23;1.17;;;18.20;81.50;;;;;;4940036;28;21031;-85
2024/03/27 11:05:05;;;;;;;1.93;1.77;;;18.30;81.60;;;;;;5018713;28;20441;-89
2024/03/27 11:07:35;;;;;;;0.87;0.83;;;18.30;80.20;;;;;;5007761;28;21068;-90
2024/03/27 11:13:24;;;;;;;1.43;0.97;;;18.20;79.90;;;;;;5023568;28;20399;-89
2024/03/27 11:15:55;;;;;;;1.23;1.20;;;18.10;80.10;;;;;;5018057;28;20427;-88
2024/03/27 11:18:45;;;;;;;1.00;0.90;;;18.10;80.60;;;;;;5028411;28;20430;-90
2024/03/27 11:21:46;;;;;;;1.13;1.03;;;17.90;79.80;;;;;;5017733;28;20447;-89
2024/03/27 11:24:45;;;;;;;1.43;1.33;;;17.90;80.80;;;;;;5007362;28;20419;-89
2024/03/27 11:27:44;;;;;;;1.37;1.30;;;18.00;79.90;;;;;;5035417;28;20447;-88
2024/03/27 11:33:14;;;;;;;1.47;1.33;;;18.10;80.30;;;;;;4973513;28;20497;-89
2024/03/27 11:36:06;;;;;;;3.00;1.33;;;18.20;81.60;;;;;;4957255;28;20502;-91
2024/03/27 11:39:05;;;;;;;2.87;1.63;;;18.20;79.10;;;;;;4957772;28;21009;-90
2024/03/27 11:41:36;;;;;;;1.30;1.20;;;18.30;79.50;;;;;;4934825;28;20445;-89
2024/03/27 11:44:05;;;;;;;2.10;1.27;;;18.50;80.70;;;;;;4972681;28;20423;-89
2024/03/27 11:53:36;;;;;;;1.23;1.10;;;19.00;80.90;;;;;;5026083;28;20475;-90
2024/03/27 11:56:26;;;;;;;2.60;1.57;;;19.20;80.60;;;;;;5011686;28;20419;-90
2024/03/27 11:59:06;;;;;;;1.53;1.20;;;19.30;79.80;;;;;;4985466;28;20417;-90
2024/03/27 12:01:50;;;;;;;;;;;;;;;;;;;;;
2024/03/27 12:04:52;;;;;;;1.10;1.00;;;19.30;79.20;;;;;;4990828;28;20419;-92
2024/03/27 12:10:56;;;;;;;1.23;1.00;;;19.20;80.00;;;;;;4979499;28;20476;-89
2024/03/27 12:13:36;;;;;;;1.20;1.10;;;19.40;80.20;;;;;;4975796;28;20496;-89
2024/03/27 12:16:55;;;;;;;1.03;1.00;;;19.40;78.00;;;;;;4975664;28;20421;-89
2024/03/27 12:19:26;;;;;;;3.17;1.20;;;19.50;78.00;;;;;;4905972;29;20454;-89
2024/03/27 12:22:04;;;;;;;1.00;0.90;;;19.70;78.40;;;;;;4900249;29;20464;-87
2024/03/27 12:24:46;;;;;;;1.63;1.50;;;19.80;79.60;;;;;;4906994;29;20484;-88
2024/03/27 12:28:20;;;;;;;;;;;;;;;;;;;;;
2024/03/27 12:31:05;;;;;;;3.63;1.43;;;19.90;82.00;;;;;;4882176;29;20418;-88
2024/03/27 12:34:46;;;;;;;1.20;1.10;;;19.90;81.80;;;;;;4826598;29;20428;-89
2024/03/27 12:37:27;;;;;;;1.03;0.90;;;19.90;80.50;;;;;;4798023;29;20475;-89
2024/03/27 12:43:46;;;;;;;1.20;1.10;;;20.30;78.70;;;;;;4819864;29;20482;-88
2024/03/27 12:47:05;;;;;;;1.43;1.10;;;20.30;77.90;;;;;;4861355;29;20422;-88
2024/03/27 12:49:36;;;;;;;1.40;1.30;;;20.30;77.20;;;;;;4936159;29;20455;-89
2024/03/27 12:52:02;;;;;;;1.10;1.00;;;20.10;77.20;;;;;;4966380;23;21024;-66
2024/03/27 12:57:01;;;;;;;4.00;1.13;;;19.80;79.00;;;;;;4970520;28;20215;-84
2024/03/27 12:59:26;;;;;;;5.67;1.30;;;19.80;79.50;;;;;;4946975;28;20438;-83
2024/03/27 13:01:52;;;;;;;2.43;1.30;;;20.10;78.60;;;;;;4952368;29;20250;-84
2024/03/27 13:04:20;;;;;;;0.90;0.80;;;20.20;78.30;;;;;;4960448;28;20198;-84
2024/03/27 13:06:45;;;;;;;1.73;1.70;;;20.10;78.10;;;;;;4960281;28;20716;-83
2024/03/27 13:09:13;;;;;;;1.30;1.00;;;19.80;78.00;;;;;;4959671;28;20437;-84
2024/03/27 13:11:39;;;;;;;1.23;1.13;;;19.30;79.50;;;;;;4959050;28;20179;-83
2024/03/27 13:14:04;;;;;;;1.20;1.10;;;19.00;80.20;;;;;;4958953;28;20971;-83
2024/03/27 13:16:30;;;;;;;3.73;1.70;;;18.70;81.60;;;;;;4976044;28;20273;-83
2024/03/27 13:18:55;;;;;;;2.50;1.70;;;18.60;82.20;;;;;;4956629;28;20656;-83
2024/03/27 13:21:20;;;;;;;2.20;1.90;;;18.60;82.50;;;;;;4957548;28;20182;-84
2024/03/27 13:23:46;;;;;;;1.77;1.43;;;18.60;82.50;;;;;;4957812;28;20178;-83
2024/03/27 13:26:11;;;;;;;3.57;2.60;;;18.70;82.80;;;;;;4974976;28;20210;-83
2024/03/27 13:28:37;;;;;;;1.30;1.23;;;18.80;83.10;;;;;;4957150;28;20206;-83
2024/03/27 13:31:04;;;;;;;1.67;1.40;;;18.90;82.40;;;;;;4956045;28;20170;-83
2024/03/27 13:33:32;;;;;;;1.33;1.17;;;18.90;82.20;;;;;;4957912;28;20426;-84
2024/03/27 13:35:58;;;;;;;0.90;0.80;;;18.90;81.10;;;;;;4955598;28;20464;-83
2024/03/27 13:38:24;;;;;;;1.47;1.20;;;18.80;81.40;;;;;;4956338;28;20429;-84
2024/03/27 13:40:50;;;;;;;4.80;1.77;;;18.70;80.70;;;;;;4955456;28;20433;-83
2024/03/27 13:43:15;;;;;;;1.20;1.20;;;18.70;81.40;;;;;;4956057;28;20853;-83
2024/03/27 13:45:42;;;;;;;3.03;2.20;;;18.80;83.30;;;;;;4972754;28;20202;-83
2024/03/27 13:48:08;;;;;;;1.10;1.00;;;18.90;83.30;;;;;;4955550;28;20203;-84
2024/03/27 13:50:33;;;;;;;1.60;1.23;;;18.80;83.50;;;;;;4955207;28;20453;-84
2024/03/27 13:52:59;;;;;;;4.00;1.53;;;18.70;84.20;;;;;;4954256;28;20445;-84
2024/03/27 13:55:24;;;;;;;8.73;2.70;;;18.70;84.00;;;;;;4971624;28;20293;-83
2024/03/27 13:57:50;;;;;;;1.50;1.40;;;18.60;83.60;;;;;;4971881;28;20228;-84
2024/03/27 14:00:16;;;;;;;1.67;1.63;;;18.60;84.80;;;;;;4955091;28;20193;-84
2024/03/27 14:02:41;;;;;;;1.27;1.13;;;18.70;83.70;;;;;;4954768;28;20225;-84
2024/03/27 14:05:07;;;;;;;1.57;1.50;;;18.70;83.80;;;;;;4971751;28;20289;-84
2024/03/27 14:07:33;;;;;;;1.20;1.10;;;18.70;82.90;;;;;;4954722;28;20614;-84
2024/03/27 14:09:59;;;;;;;4.40;2.17;;;18.90;83.00;;;;;;4972040;28;20253;-84
2024/03/27 14:12:24;;;;;;;1.70;1.67;;;19.20;82.50;;;;;;4955039;28;20474;-84
2024/03/27 14:14:50;;;;;;;2.63;1.80;;;19.60;81.50;;;;;;4954386;28;20657;-84
2024/03/27 14:17:19;;;;;;;2.13;1.73;;;19.60;81.70;;;;;;4967312;28;20195;-85
2024/03/27 14:19:44;;;;;;;1.20;1.10;;;19.90;81.00;;;;;;4952759;28;20425;-85
2024/03/27 14:22:10;;;;;;;1.67;1.57;;;20.20;80.70;;;;;;4957824;28;20484;-84
2024/03/27 14:24:36;;;;;;;2.43;2.23;;;20.50;80.90;;;;;;4957893;28;20186;-84
2024/03/27 14:27:02;;;;;;;1.40;1.30;;;20.70;79.40;;;;;;4958575;28;20249;-84
2024/03/27 14:29:28;;;;;;;1.23;1.13;;;20.70;80.00;;;;;;4956868;28;20472;-84
2024/03/27 14:31:54;;;;;;;3.13;1.83;;;20.80;79.70;;;;;;4962910;28;20429;-84
2024/03/27 14:34:19;;;;;;;6.07;1.60;;;20.60;79.70;;;;;;4966544;28;20665;-84
2024/03/27 14:36:44;;;;;;;1.70;1.50;;;20.60;80.10;;;;;;4956203;28;20206;-84
2024/03/27 14:39:11;;;;;;;3.00;1.50;;;20.40;80.30;;;;;;4972210;28;20178;-84
2024/03/27 14:41:36;;;;;;;1.80;1.70;;;20.10;80.70;;;;;;4957317;28;20245;-84
2024/03/27 14:44:02;;;;;;;3.03;2.10;;;19.90;80.20;;;;;;4974494;28;20948;-84
2024/03/27 14:46:27;;;;;;;1.20;1.10;;;19.60;79.30;;;;;;4957097;28;20202;-84
2024/03/27 14:48:53;;;;;;;1.93;1.87;;;19.30;79.70;;;;;;4957254;28;20214;-84
2024/03/27 14:51:19;;;;;;;2.50;1.30;;;19.00;79.60;;;;;;4974173;28;20225;-84
2024/03/27 14:53:44;;;;;;;1.70;1.50;;;18.90;79.70;;;;;;4957347;28;20229;-84
2024/03/27 14:56:10;;;;;;;1.40;1.30;;;18.90;81.00;;;;;;4953796;28;20796;-84
2024/03/27 14:58:35;;;;;;;1.10;1.00;;;18.90;80.90;;;;;;4953897;29;20199;-84
2024/03/27 15:01:01;;;;;;;2.30;2.10;;;18.90;81.00;;;;;;4953761;29;20195;-84
2024/03/27 15:03:26;;;;;;;2.97;2.43;;;19.10;80.70;;;;;;4953997;29;20274;-84
2024/03/27 15:05:52;;;;;;;1.57;1.40;;;19.30;80.10;;;;;;4953565;28;20199;-84
2024/03/27 15:08:19;;;;;;;1.97;1.20;;;19.40;80.40;;;;;;4953593;29;20222;-84
2024/03/27 15:10:45;;;;;;;3.27;1.67;;;19.30;80.20;;;;;;4953329;29;20183;-84
2024/03/27 15:13:10;;;;;;;0.97;0.90;;;19.10;80.70;;;;;;4953768;29;20489;-84
2024/03/27 15:15:36;;;;;;;1.77;1.60;;;18.90;81.00;;;;;;4953274;29;20685;-84
2024/03/27 15:18:02;;;;;;;1.80;1.70;;;18.70;82.00;;;;;;4953823;29;20175;-85
2024/03/27 15:20:27;;;;;;;2.93;1.67;;;18.40;81.40;;;;;;4954872;29;20209;-84
2024/03/27 15:22:53;;;;;;;1.77;1.73;;;18.20;82.30;;;;;;4953409;29;20411;-84
2024/03/27 15:25:22;;;;;;;2.03;1.50;;;18.00;82.20;;;;;;4953094;28;20203;-84
2024/03/27 15:27:47;;;;;;;4.80;2.03;;;17.90;83.10;;;;;;4953231;29;20195;-84
2024/03/27 15:30:13;;;;;;;1.10;1.00;;;17.80;82.70;;;;;;4952858;28;20793;-83
2024/03/27 15:32:38;;;;;;;5.23;2.53;;;17.80;83.70;;;;;;4953155;29;20211;-84
2024/03/27 15:35:04;;;;;;;3.03;2.70;;;17.70;83.50;;;;;;4952630;28;20693;-84
2024/03/27 15:37:29;;;;;;;2.60;2.40;;;17.60;84.00;;;;;;4952970;29;20218;-84
2024/03/27 15:39:55;;;;;;;2.60;1.40;;;17.50;84.10;;;;;;4951872;29;20235;-84
2024/03/27 15:42:21;;;;;;;3.47;1.73;;;17.50;84.00;;;;;;4952600;29;20201;-84
2024/03/27 15:44:46;;;;;;;1.60;1.50;;;17.40;84.70;;;;;;4953292;28;20214;-84
2024/03/27 15:47:12;;;;;;;1.60;1.47;;;17.40;84.70;;;;;;4953044;29;20278;-84
2024/03/27 15:49:37;;;;;;;6.43;3.07;;;17.40;84.80;;;;;;4950591;28;20184;-84
2024/03/27 15:52:03;;;;;;;2.50;1.60;;;17.20;85.00;;;;;;4951988;29;20184;-84
2024/03/27 15:54:29;;;;;;;7.27;2.00;;;17.20;85.10;;;;;;4953121;28;20244;-84
2024/03/27 15:56:55;;;;;;;2.33;2.13;;;17.20;85.00;;;;;;4971935;28;20221;-84
2024/03/27 15:59:20;;;;;;;1.17;1.07;;;17.10;85.30;;;;;;4973308;28;20849;-84
2024/03/27 16:01:45;;;;;;;1.90;1.80;;;17.00;85.60;;;;;;4956048;28;20241;-84
2024/03/27 16:04:11;;;;;;;1.93;1.83;;;17.00;86.10;;;;;;4956179;28;20205;-84
2024/03/27 16:06:36;;;;;;;2.33;1.73;;;17.00;85.80;;;;;;4955849;28;20285;-85
2024/03/27 16:09:03;;;;;;;1.30;1.20;;;17.00;86.10;;;;;;4955942;28;20177;-85
2024/03/27 16:11:29;;;;;;;4.20;1.70;;;17.00;86.20;;;;;;4955872;28;20213;-85
2024/03/27 16:13:54;;;;;;;2.40;1.70;;;17.00;85.90;;;;;;4962549;28;20419;-84
2024/03/27 16:16:20;;;;;;;6.70;3.03;;;17.00;86.00;;;;;;4971968;28;20199;-84
2024/03/27 16:18:45;;;;;;;1.10;1.00;;;16.90;85.50;;;;;;4972088;28;20213;-85
2024/03/27 16:21:11;;;;;;;1.63;1.53;;;16.90;86.10;;;;;;4989337;28;20186;-84
2024/03/27 16:23:36;;;;;;;1.67;1.57;;;16.80;86.00;;;;;;4957139;28;20370;-85
2024/03/27 16:26:02;;;;;;;1.60;1.50;;;16.80;86.20;;;;;;4956688;28;20664;-84
2024/03/27 16:28:28;;;;;;;1.53;1.33;;;16.70;86.30;;;;;;4954524;28;20685;-84
2024/03/27 16:30:56;;;;;;;9.67;2.47;;;16.70;86.60;;;;;;4955472;28;20434;-84
2024/03/27 16:33:25;;;;;;;1.63;1.37;;;16.60;86.70;;;;;;4955400;28;20187;-84
2024/03/27 16:35:54;;;;;;;2.60;2.40;;;16.60;87.30;;;;;;4954739;28;20486;-85
2024/03/27 16:38:34;;;;;;;3.23;3.03;;;16.50;87.80;;;;;;4954746;28;20521;-85
2024/03/27 16:41:06;;;;;;;2.53;2.33;;;16.50;88.40;;;;;;4971875;28;20422;-84
2024/03/27 16:43:34;;;;;;;1.37;1.27;;;16.40;88.80;;;;;;4972264;28;20465;-85
2024/03/27 16:46:06;;;;;;;1.80;1.70;;;16.30;88.80;;;;;;4954689;28;20437;-84
2024/03/27 16:48:54;;;;;;;1.27;1.17;;;16.20;89.60;;;;;;4972239;28;20994;-85
2024/03/27 16:51:45;;;;;;;3.57;2.07;;;16.10;90.40;;;;;;4939470;28;20422;-85
2024/03/27 16:54:17;;;;;;;2.70;1.40;;;15.90;90.60;;;;;;4954706;28;20428;-84
2024/03/27 16:56:45;;;;;;;2.60;2.17;;;15.90;91.10;;;;;;4971354;28;20465;-85
2024/03/27 16:59:36;;;;;;;4.17;2.70;;;15.80;91.10;;;;;;4972309;28;20465;-84
2024/03/27 17:02:25;;;;;;;2.43;1.60;;;15.80;91.30;;;;;;4941293;28;20481;-85
2024/03/27 17:04:56;;;;;;;1.87;1.77;;;15.80;91.60;;;;;;4956850;28;20450;-83
2024/03/27 17:07:25;;;;;;;1.90;1.50;;;16.00;91.40;;;;;;4953064;28;20480;-84
2024/03/27 17:09:58;;;;;;;18.50;3.13;;;16.30;90.40;;;;;;4956525;28;20422;-84
2024/03/27 17:12:26;;;;;;;9.73;4.30;;;16.20;90.10;;;;;;4956802;28;21065;-84
2024/03/27 17:14:55;;;;;;;13.73;3.70;;;16.00;90.20;;;;;;4956112;28;20956;-83
2024/03/27 17:17:27;;;;;;;1.63;1.60;;;15.90;90.50;;;;;;4971076;28;20422;-84
2024/03/27 17:19:55;;;;;;;1.67;1.60;;;15.70;90.70;;;;;;4971439;28;20425;-84
2024/03/27 17:22:27;;;;;;;4.30;2.93;;;15.60;90.90;;;;;;4955375;28;20432;-85
2024/03/27 17:24:55;;;;;;;33.67;11.50;;;15.50;91.00;;;;;;4954331;28;20496;-84
2024/03/27 17:27:26;;;;;;;108.93;23.27;;;15.40;91.20;;;;;;4954122;28;20497;-85
2024/03/27 17:29:54;;;;;;;4.70;2.43;;;15.40;91.50;;;;;;4971909;28;20422;-84
2024/03/27 17:32:26;;;;;;;5.03;3.33;;;15.30;91.70;;;;;;4954611;28;20448;-85
2024/03/27 17:35:05;;;;;;;1.93;1.83;;;15.30;91.70;;;;;;4971505;28;20430;-84
2024/03/27 17:37:37;;;;;;;3.70;1.53;;;15.20;91.80;;;;;;4953970;28;20518;-84
2024/03/27 17:40:06;;;;;;;2.80;1.77;;;15.20;92.00;;;;;;4955487;28;20421;-84
2024/03/27 17:42:35;;;;;;;5.70;3.00;;;15.10;92.20;;;;;;4955955;28;20425;-84
2024/03/27 17:45:16;;;;;;;4.90;2.10;;;15.10;92.30;;;;;;4955754;28;20458;-85
2024/03/27 17:47:45;;;;;;;2.13;1.97;;;15.00;92.40;;;;;;4950536;28;20453;-84
2024/03/27 17:50:17;;;;;;;4.20;2.43;;;15.00;92.50;;;;;;4953993;28;20549;-85
2024/03/27 17:52:46;;;;;;;3.10;2.40;;;15.00;93.00;;;;;;4953999;28;20470;-85
2024/03/27 17:55:16;;;;;;;1.40;1.30;;;14.90;93.10;;;;;;4956931;28;20465;-84
2024/03/27 17:58:07;;;;;;;1.87;1.80;;;14.90;93.30;;;;;;4958279;28;20879;-85
2024/03/27 18:00:46;;;;;;;2.27;2.07;;;14.80;93.30;;;;;;4961487;28;20983;-85
2024/03/27 18:03:15;;;;;;;2.07;1.30;;;14.80;93.20;;;;;;4959304;28;20433;-84
2024/03/27 18:05:56;;;;;;;10.83;3.30;;;14.80;93.40;;;;;;4976599;28;20515;-85
2024/03/27 18:08:36;;;;;;;1.93;1.70;;;14.80;93.60;;;;;;4964852;28;20524;-85
2024/03/27 18:11:07;;;;;;;1.60;1.50;;;14.70;93.80;;;;;;4966118;28;20429;-85
2024/03/27 18:13:36;;;;;;;12.33;2.27;;;14.70;94.00;;;;;;4976040;28;20463;-85
2024/03/27 18:16:26;;;;;;;4.50;2.00;;;14.60;94.00;;;;;;4961915;28;20453;-84
2024/03/27 18:18:55;;;;;;;1.57;1.53;;;14.60;93.80;;;;;;4962646;28;20561;-85
2024/03/27 18:21:26;;;;;;;3.90;1.87;;;14.60;94.20;;;;;;4964746;28;20516;-85
2024/03/27 18:24:37;;;;;;;;;;;;;;;;;;;;;
2024/03/27 18:27:06;;;;;;;1.80;1.73;;;14.50;94.70;;;;;;4982154;28;20955;-85
2024/03/27 18:29:56;;;;;;;5.57;2.77;;;14.50;95.00;;;;;;4985985;28;20453;-84
2024/03/27 18:32:55;;;;;;;2.83;1.70;;;14.50;94.80;;;;;;4973137;28;20425;-84
2024/03/27 18:35:27;;;;;;;2.50;1.43;;;14.50;94.70;;;;;;4967639;28;20950;-85
2024/03/27 18:37:55;;;;;;;4.37;1.97;;;14.40;94.90;;;;;;4966832;28;20803;-85
2024/03/27 18:40:56;;;;;;;1.27;1.17;;;14.40;95.00;;;;;;4971859;28;20587;-86
2024/03/27 18:43:25;;;;;;;15.63;2.00;;;14.30;95.20;;;;;;4907759;29;20442;-85
2024/03/27 18:45:57;;;;;;;6.90;2.63;;;14.30;95.40;;;;;;4907026;29;20456;-85
2024/03/27 18:48:56;;;;;;;2.00;1.90;;;14.20;95.60;;;;;;4884667;29;20842;-85